Time;durP1;ratioP1;P1;durP2;ratioP2;P2;SDS_P1;SDS_P2;PMS_P1;PMS_P2;Temp;Humidity;BMP_temperature;BMP_pressure;BME280_temperature;BME280_humidity;BME280_pressure;Samples;Min_cycle;Max_cycle;Signal;HPM_P1;HPM_P2
2021/12/26 00:01:07;;;;;;;5.73;4.90;;;4.60;97.70;;;;;;5114434;28;20467;-67
2021/12/26 00:03:35;;;;;;;5.37;4.87;;;4.60;97.70;;;;;;5114418;28;20445;-67
2021/12/26 00:06:06;;;;;;;5.67;5.03;;;4.60;97.80;;;;;;5114077;28;20953;-67
2021/12/26 00:08:33;;;;;;;5.53;4.90;;;4.60;97.80;;;;;;5114473;28;20468;-67
2021/12/26 00:11:00;;;;;;;4.87;4.47;;;4.60;97.80;;;;;;5114342;28;20845;-67
2021/12/26 00:13:27;;;;;;;4.53;4.20;;;4.60;97.80;;;;;;5114549;28;20454;-67
2021/12/26 00:15:53;;;;;;;4.90;4.50;;;4.60;97.70;;;;;;5114996;28;20447;-67
2021/12/26 00:18:22;;;;;;;5.13;4.73;;;4.60;97.60;;;;;;5113896;28;21000;-67
2021/12/26 00:20:48;;;;;;;4.80;4.30;;;4.60;97.70;;;;;;5113807;28;20834;-67
2021/12/26 00:23:16;;;;;;;5.57;4.93;;;4.60;97.90;;;;;;5114092;28;20442;-67
2021/12/26 00:25:43;;;;;;;5.13;4.73;;;4.60;97.90;;;;;;5114140;28;20449;-67
2021/12/26 00:28:10;;;;;;;5.60;5.00;;;4.50;97.90;;;;;;5112923;28;20447;-67
2021/12/26 00:30:37;;;;;;;5.47;4.97;;;4.40;98.00;;;;;;5113761;28;20863;-67
2021/12/26 00:33:04;;;;;;;4.77;4.37;;;4.20;98.30;;;;;;5114051;28;20442;-67
2021/12/26 00:35:32;;;;;;;5.27;4.77;;;4.20;98.50;;;;;;5114059;28;20453;-67
2021/12/26 00:37:58;;;;;;;4.67;4.27;;;4.20;98.50;;;;;;5113603;28;21006;-67
2021/12/26 00:40:26;;;;;;;5.80;4.80;;;4.30;98.40;;;;;;5113966;28;20492;-67
2021/12/26 00:42:54;;;;;;;4.90;4.33;;;4.30;98.10;;;;;;5114106;28;20450;-67
2021/12/26 00:45:21;;;;;;;5.87;5.33;;;4.40;98.00;;;;;;5114112;28;20447;-67
2021/12/26 00:47:48;;;;;;;5.40;4.90;;;4.40;97.90;;;;;;5114735;28;20445;-67
2021/12/26 00:50:19;;;;;;;5.10;4.60;;;4.30;98.00;;;;;;5114247;28;20443;-67
2021/12/26 00:52:47;;;;;;;5.00;4.60;;;4.40;98.00;;;;;;5113930;28;20423;-67
2021/12/26 00:55:15;;;;;;;5.77;4.67;;;4.40;97.80;;;;;;5113806;28;20478;-67
2021/12/26 00:57:43;;;;;;;5.03;4.43;;;4.40;97.70;;;;;;5113717;28;20477;-68
2021/12/26 01:00:13;;;;;;;6.10;5.30;;;4.40;97.60;;;;;;5113780;28;20423;-67
2021/12/26 01:02:40;;;;;;;5.30;4.77;;;4.40;97.40;;;;;;5113769;28;20431;-67
2021/12/26 01:05:10;;;;;;;5.30;4.80;;;4.50;97.40;;;;;;5113407;28;20843;-67
2021/12/26 01:07:46;;;;;;;4.83;4.43;;;4.50;97.30;;;;;;5113443;28;20438;-67
2021/12/26 01:10:16;;;;;;;5.90;5.40;;;4.40;97.10;;;;;;5113654;28;20519;-67
2021/12/26 01:12:43;;;;;;;5.60;4.90;;;4.40;97.20;;;;;;5113773;28;20446;-67
2021/12/26 01:15:11;;;;;;;4.13;3.77;;;4.40;97.00;;;;;;5113640;28;20469;-67
2021/12/26 01:17:41;;;;;;;5.70;5.20;;;4.40;96.90;;;;;;5113232;28;20523;-67
2021/12/26 01:20:12;;;;;;;6.10;5.50;;;4.50;97.00;;;;;;5113520;28;20451;-68
2021/12/26 01:22:39;;;;;;;5.97;5.37;;;4.40;97.00;;;;;;5113617;28;20480;-67
2021/12/26 01:25:06;;;;;;;8.20;5.43;;;4.50;97.10;;;;;;5113483;28;20447;-67
2021/12/26 01:27:35;;;;;;;7.07;5.20;;;4.50;97.00;;;;;;5113428;28;20438;-67
2021/12/26 01:30:01;;;;;;;5.33;4.80;;;4.50;97.10;;;;;;5113383;28;20443;-67
2021/12/26 01:32:28;;;;;;;5.77;5.20;;;4.50;96.70;;;;;;5113310;28;20450;-67
2021/12/26 01:34:55;;;;;;;6.33;5.10;;;4.50;96.70;;;;;;5113419;28;20438;-67
2021/12/26 01:37:22;;;;;;;5.83;5.23;;;4.50;96.80;;;;;;5113294;28;20450;-67
2021/12/26 01:39:48;;;;;;;5.77;5.17;;;4.50;96.70;;;;;;5114850;28;20454;-67
2021/12/26 01:42:15;;;;;;;6.03;5.43;;;4.50;96.30;;;;;;5117088;28;20461;-67
2021/12/26 01:44:43;;;;;;;5.87;5.20;;;4.40;96.50;;;;;;5117123;28;20453;-67
2021/12/26 01:47:11;;;;;;;5.10;4.60;;;4.40;96.50;;;;;;5117091;28;20442;-67
2021/12/26 01:49:38;;;;;;;5.50;5.00;;;4.50;96.40;;;;;;5117029;28;20450;-67
2021/12/26 01:52:07;;;;;;;5.23;4.73;;;4.50;96.30;;;;;;5116535;28;20833;-67
2021/12/26 01:54:40;;;;;;;5.00;4.60;;;4.50;96.20;;;;;;5117027;28;20442;-67
2021/12/26 01:57:10;;;;;;;5.13;4.63;;;4.50;96.20;;;;;;5117127;28;20975;-67
2021/12/26 01:59:37;;;;;;;6.00;5.00;;;4.50;96.20;;;;;;5117818;28;20462;-67
2021/12/26 02:02:06;;;;;;;5.47;4.97;;;4.50;96.50;;;;;;5116953;28;20462;-67
2021/12/26 02:04:33;;;;;;;5.87;5.10;;;4.40;96.90;;;;;;5116846;28;20466;-67
2021/12/26 02:07:03;;;;;;;6.03;5.43;;;4.40;96.90;;;;;;5116297;28;20447;-67
2021/12/26 02:09:30;;;;;;;5.70;5.20;;;4.40;96.90;;;;;;5116590;28;20443;-67
2021/12/26 02:11:57;;;;;;;5.67;5.17;;;4.40;96.80;;;;;;5116494;28;20545;-67
2021/12/26 02:14:24;;;;;;;6.10;5.33;;;4.40;96.70;;;;;;5116578;28;20472;-67
2021/12/26 02:16:51;;;;;;;5.90;5.30;;;4.40;96.70;;;;;;5117157;28;20451;-67
2021/12/26 02:19:19;;;;;;;6.53;5.33;;;4.40;96.60;;;;;;5116367;27;20477;-67
2021/12/26 02:22:01;;;;;;;5.80;5.27;;;4.40;96.80;;;;;;5116639;28;20459;-67
2021/12/26 02:24:33;;;;;;;6.00;5.40;;;4.40;96.50;;;;;;5116376;28;20858;-67
2021/12/26 02:29:45;;;;;;;5.60;5.10;;;4.40;96.40;;;;;;5116311;28;20399;-67
2021/12/26 02:32:12;;;;;;;7.47;5.00;;;4.40;96.50;;;;;;5116208;28;20458;-67
2021/12/26 02:34:38;;;;;;;7.83;6.20;;;4.40;96.60;;;;;;5116242;28;20439;-67
2021/12/26 02:37:07;;;;;;;6.03;4.83;;;4.40;96.70;;;;;;5115795;28;20439;-67
2021/12/26 02:39:35;;;;;;;6.47;5.47;;;4.40;96.60;;;;;;5116346;28;20479;-67
2021/12/26 02:42:02;;;;;;;6.70;5.17;;;4.40;96.70;;;;;;5115971;28;20894;-67
2021/12/26 02:44:29;;;;;;;6.10;5.17;;;4.30;96.70;;;;;;5115928;28;20443;-67
2021/12/26 02:46:56;;;;;;;5.87;5.27;;;4.30;96.70;;;;;;5115893;28;20453;-67
2021/12/26 02:49:23;;;;;;;7.77;5.73;;;4.30;96.80;;;;;;5115784;28;20439;-67
2021/12/26 02:51:51;;;;;;;7.37;5.53;;;4.30;96.80;;;;;;5114880;28;20511;-67
2021/12/26 02:54:20;;;;;;;5.60;5.10;;;4.30;96.70;;;;;;5115793;28;20442;-67
2021/12/26 02:56:46;;;;;;;6.43;5.80;;;4.30;96.60;;;;;;5115679;28;20431;-67
2021/12/26 02:59:13;;;;;;;6.40;5.80;;;4.40;96.60;;;;;;5115906;28;20486;-67
2021/12/26 03:01:40;;;;;;;6.67;5.07;;;4.40;96.60;;;;;;5115468;28;20516;-67
2021/12/26 03:04:08;;;;;;;6.40;5.70;;;4.40;96.70;;;;;;5115364;28;20438;-67
2021/12/26 03:06:42;;;;;;;7.17;6.47;;;4.40;96.70;;;;;;5116413;28;20470;-67
2021/12/26 03:09:09;;;;;;;6.07;5.47;;;4.40;96.80;;;;;;5115888;28;20522;-67
2021/12/26 03:11:38;;;;;;;6.30;5.77;;;4.40;96.90;;;;;;5115311;28;20473;-67
2021/12/26 03:14:05;;;;;;;7.50;6.03;;;4.40;96.90;;;;;;5115031;28;20450;-67
2021/12/26 03:16:32;;;;;;;6.90;5.63;;;4.40;97.10;;;;;;5115422;28;20928;-67
2021/12/26 03:19:00;;;;;;;6.43;5.70;;;4.40;97.00;;;;;;5115431;28;20612;-67
2021/12/26 03:21:27;;;;;;;8.57;7.67;;;4.40;97.00;;;;;;5115234;28;20976;-67
2021/12/26 03:23:54;;;;;;;7.90;6.70;;;4.30;97.10;;;;;;5115709;28;20442;-67
2021/12/26 03:26:21;;;;;;;9.63;7.30;;;4.30;97.20;;;;;;5115079;28;20439;-71
2021/12/26 03:28:49;;;;;;;7.40;6.30;;;4.30;97.30;;;;;;5115350;28;20435;-71
2021/12/26 03:31:15;;;;;;;7.87;6.77;;;4.30;97.50;;;;;;5114669;28;20467;-71
2021/12/26 03:33:42;;;;;;;9.00;7.30;;;4.30;97.50;;;;;;5115352;27;20451;-71
2021/12/26 03:36:09;;;;;;;9.30;7.60;;;4.30;97.70;;;;;;5114991;28;20812;-71
2021/12/26 03:38:37;;;;;;;9.77;8.47;;;4.40;97.90;;;;;;5114895;28;20474;-71
2021/12/26 03:41:04;;;;;;;8.07;7.27;;;4.30;98.00;;;;;;5114801;28;20541;-72
2021/12/26 03:43:31;;;;;;;8.00;7.20;;;4.30;98.40;;;;;;5114427;28;20798;-71
2021/12/26 03:46:00;;;;;;;9.10;7.43;;;4.40;98.00;;;;;;5114725;28;20450;-71
2021/12/26 03:48:27;;;;;;;8.50;6.70;;;4.40;98.00;;;;;;5114757;28;20442;-71
2021/12/26 03:50:55;;;;;;;10.17;7.60;;;4.40;98.00;;;;;;5114632;28;20485;-71
2021/12/26 03:53:22;;;;;;;9.20;8.00;;;4.50;98.00;;;;;;5114646;28;20447;-71
2021/12/26 03:55:49;;;;;;;8.00;7.00;;;4.50;98.00;;;;;;5114848;28;20439;-71
2021/12/26 03:58:17;;;;;;;7.30;6.57;;;4.50;98.10;;;;;;5114134;28;21058;-71
2021/12/26 04:00:45;;;;;;;9.03;7.10;;;4.50;98.10;;;;;;5114760;28;20474;-71
2021/12/26 04:03:13;;;;;;;9.60;7.87;;;4.50;98.10;;;;;;5114021;28;20798;-71
2021/12/26 04:05:40;;;;;;;8.07;7.33;;;4.50;98.00;;;;;;5114155;28;20450;-71
2021/12/26 04:08:07;;;;;;;8.50;7.70;;;4.50;98.00;;;;;;5114390;28;20493;-71
2021/12/26 04:10:34;;;;;;;8.77;7.77;;;4.50;98.00;;;;;;5114203;28;20467;-71
2021/12/26 04:13:01;;;;;;;9.63;8.63;;;4.50;97.90;;;;;;5114048;28;20952;-71
2021/12/26 04:15:28;;;;;;;10.43;7.97;;;4.50;98.00;;;;;;5114339;28;20458;-71
2021/12/26 04:17:57;;;;;;;8.93;7.83;;;4.50;98.30;;;;;;5114394;28;20446;-71
2021/12/26 04:20:26;;;;;;;10.63;7.80;;;4.50;97.80;;;;;;5114200;28;20517;-71
2021/12/26 04:22:54;;;;;;;9.77;8.43;;;4.50;97.80;;;;;;5114442;28;20462;-72
2021/12/26 04:25:22;;;;;;;12.53;8.20;;;4.50;97.90;;;;;;5114096;28;20844;-71
2021/12/26 04:27:49;;;;;;;9.73;8.23;;;4.60;98.00;;;;;;5114117;28;20439;-71
2021/12/26 04:30:17;;;;;;;9.60;8.40;;;4.50;98.00;;;;;;5114053;28;20445;-71
2021/12/26 04:32:44;;;;;;;12.33;8.60;;;4.60;98.10;;;;;;5114018;28;20457;-71
2021/12/26 04:35:11;;;;;;;9.30;8.00;;;4.50;98.40;;;;;;5113977;28;20443;-71
2021/12/26 04:37:39;;;;;;;9.67;8.40;;;4.50;98.20;;;;;;5113695;28;20945;-71
2021/12/26 04:40:09;;;;;;;9.10;8.20;;;4.50;98.30;;;;;;5113496;28;21007;-70
2021/12/26 04:42:39;;;;;;;9.03;8.13;;;4.60;98.30;;;;;;5114187;28;20441;-71
2021/12/26 04:45:08;;;;;;;10.23;9.03;;;4.50;98.40;;;;;;5113900;28;20474;-71
2021/12/26 04:47:36;;;;;;;9.60;8.30;;;4.50;98.40;;;;;;5113938;28;20541;-71
2021/12/26 04:50:04;;;;;;;9.57;8.53;;;4.50;98.40;;;;;;5113506;28;20537;-71
2021/12/26 04:52:31;;;;;;;10.33;9.23;;;4.60;98.50;;;;;;5113848;28;20454;-71
2021/12/26 04:55:01;;;;;;;10.33;8.47;;;4.60;98.40;;;;;;5113533;28;20928;-68
2021/12/26 04:57:28;;;;;;;10.10;7.97;;;4.60;98.80;;;;;;5113768;28;20443;-68
2021/12/26 04:59:55;;;;;;;9.87;8.83;;;4.60;98.50;;;;;;5113762;28;20510;-68
2021/12/26 05:02:22;;;;;;;10.97;8.77;;;4.60;98.40;;;;;;5113586;28;20474;-68
2021/12/26 05:04:48;;;;;;;11.30;9.00;;;4.60;98.30;;;;;;5113506;28;20458;-68
2021/12/26 05:07:15;;;;;;;11.37;8.10;;;4.60;98.40;;;;;;5113640;28;20445;-68
2021/12/26 05:09:45;;;;;;;9.20;8.00;;;4.60;98.30;;;;;;5113725;28;20435;-68
2021/12/26 05:12:13;;;;;;;10.20;9.07;;;4.60;97.90;;;;;;5113790;28;20542;-67
2021/12/26 05:14:40;;;;;;;9.83;8.83;;;4.60;98.00;;;;;;5116064;28;20469;-67
2021/12/26 05:17:07;;;;;;;10.23;8.97;;;4.60;98.10;;;;;;5118074;28;20447;-67
2021/12/26 05:19:33;;;;;;;9.03;8.03;;;4.60;98.20;;;;;;5117498;28;20481;-68
2021/12/26 05:22:00;;;;;;;10.67;8.83;;;4.60;98.10;;;;;;5117490;28;20810;-68
2021/12/26 05:24:27;;;;;;;12.27;9.13;;;4.60;98.20;;;;;;5117563;28;20457;-68
2021/12/26 05:26:53;;;;;;;10.30;8.47;;;4.60;98.30;;;;;;5117450;28;20437;-68
2021/12/26 05:29:21;;;;;;;11.77;9.70;;;4.60;98.20;;;;;;5117390;28;20446;-68
2021/12/26 05:31:48;;;;;;;10.60;8.97;;;4.60;98.20;;;;;;5117261;28;20463;-68
2021/12/26 05:34:15;;;;;;;11.27;8.77;;;4.70;98.20;;;;;;5117340;28;20453;-67
2021/12/26 05:36:42;;;;;;;10.30;9.17;;;4.60;98.10;;;;;;5117269;28;20442;-68
2021/12/26 05:39:08;;;;;;;12.50;9.13;;;4.60;98.20;;;;;;5117110;28;20478;-68
2021/12/26 05:41:35;;;;;;;10.63;8.83;;;4.60;98.30;;;;;;5117432;28;20463;-67
2021/12/26 05:44:02;;;;;;;11.93;9.53;;;4.70;98.30;;;;;;5117598;28;20939;-68
2021/12/26 05:46:30;;;;;;;10.60;9.43;;;4.60;98.10;;;;;;5117655;28;20447;-68
2021/12/26 05:48:59;;;;;;;11.00;9.53;;;4.60;98.30;;;;;;5117300;28;20850;-67
2021/12/26 05:51:26;;;;;;;11.60;9.70;;;4.60;98.20;;;;;;5116967;28;20494;-67
2021/12/26 05:53:53;;;;;;;11.40;9.70;;;4.60;97.90;;;;;;5116986;28;20457;-67
2021/12/26 05:56:19;;;;;;;11.60;10.20;;;4.60;98.00;;;;;;5116870;28;20450;-68
2021/12/26 05:58:46;;;;;;;12.17;10.07;;;4.60;98.00;;;;;;5116735;28;20438;-68
2021/12/26 06:01:13;;;;;;;10.07;8.93;;;4.60;97.90;;;;;;5116687;28;20463;-68
2021/12/26 06:03:41;;;;;;;12.30;9.20;;;4.60;97.90;;;;;;5116714;28;20446;-68
2021/12/26 06:06:08;;;;;;;11.20;9.53;;;4.50;97.70;;;;;;5116462;28;20529;-67
2021/12/26 06:08:35;;;;;;;12.47;10.57;;;4.60;97.70;;;;;;5116384;28;20443;-67
2021/12/26 06:11:02;;;;;;;12.27;10.10;;;4.60;97.70;;;;;;5116582;28;20462;-68
2021/12/26 06:13:31;;;;;;;13.70;11.17;;;4.50;97.60;;;;;;5116544;28;20445;-68
2021/12/26 06:15:58;;;;;;;13.53;10.50;;;4.50;97.90;;;;;;5116710;28;20499;-68
2021/12/26 06:18:25;;;;;;;14.33;11.10;;;4.40;98.10;;;;;;5117303;28;20439;-68
2021/12/26 06:20:53;;;;;;;15.17;11.97;;;4.50;98.30;;;;;;5116290;28;20487;-68
2021/12/26 06:23:20;;;;;;;13.60;11.50;;;4.40;98.40;;;;;;5116354;28;20450;-68
2021/12/26 06:25:47;;;;;;;14.73;11.77;;;4.50;98.40;;;;;;5114920;28;20848;-68
2021/12/26 06:28:13;;;;;;;16.03;11.53;;;4.50;98.60;;;;;;5116200;28;20860;-67
2021/12/26 06:30:40;;;;;;;12.43;11.00;;;4.50;98.90;;;;;;5115997;28;20836;-67
2021/12/26 06:33:07;;;;;;;13.70;11.10;;;4.50;98.50;;;;;;5116258;28;20524;-67
2021/12/26 06:35:34;;;;;;;13.80;9.97;;;4.50;98.60;;;;;;5116535;28;20516;-67
2021/12/26 06:38:02;;;;;;;13.70;10.87;;;4.50;98.80;;;;;;5116358;28;20500;-67
2021/12/26 06:40:29;;;;;;;12.53;10.37;;;4.50;98.80;;;;;;5115938;28;20512;-67
2021/12/26 06:42:56;;;;;;;12.87;10.40;;;4.50;98.70;;;;;;5116111;28;20439;-67
2021/12/26 06:45:22;;;;;;;14.90;10.93;;;4.50;98.70;;;;;;5115965;28;20450;-67
2021/12/26 06:47:51;;;;;;;14.90;11.83;;;4.50;98.70;;;;;;5115551;28;20936;-67
2021/12/26 06:50:19;;;;;;;13.97;11.57;;;4.50;98.30;;;;;;5115706;28;20447;-68
2021/12/26 06:52:46;;;;;;;14.30;11.63;;;4.50;98.20;;;;;;5115968;28;20443;-68
2021/12/26 06:55:14;;;;;;;12.93;11.27;;;4.50;98.30;;;;;;5115813;28;20450;-68
2021/12/26 06:57:43;;;;;;;17.70;12.67;;;4.50;98.30;;;;;;5115680;28;20477;-68
2021/12/26 07:00:12;;;;;;;14.80;11.80;;;4.50;98.70;;;;;;5115149;28;20992;-69
2021/12/26 07:02:39;;;;;;;14.60;11.47;;;4.60;98.60;;;;;;5115597;28;20782;-68
2021/12/26 07:05:06;;;;;;;13.97;11.47;;;4.50;98.60;;;;;;5115302;28;20470;-68
2021/12/26 07:07:33;;;;;;;14.73;11.57;;;4.50;98.70;;;;;;5115616;28;20439;-68
2021/12/26 07:10:00;;;;;;;12.30;10.57;;;4.50;98.70;;;;;;5115549;28;20492;-68
2021/12/26 07:12:28;;;;;;;11.80;10.50;;;4.50;98.70;;;;;;5115049;28;20937;-68
2021/12/26 07:14:55;;;;;;;12.90;11.30;;;4.50;98.70;;;;;;5115584;28;20450;-68
2021/12/26 07:17:22;;;;;;;13.73;10.83;;;4.60;98.60;;;;;;5115276;28;20443;-68
2021/12/26 07:19:49;;;;;;;13.50;11.40;;;4.60;98.60;;;;;;5115128;28;20475;-68
2021/12/26 07:22:15;;;;;;;14.23;11.63;;;4.60;98.60;;;;;;5115198;28;20458;-68
2021/12/26 07:24:43;;;;;;;14.07;11.07;;;4.60;98.60;;;;;;5115126;28;20443;-68
2021/12/26 07:27:11;;;;;;;16.07;11.97;;;4.70;98.70;;;;;;5115110;28;20447;-68
2021/12/26 07:29:39;;;;;;;17.00;13.33;;;4.70;98.50;;;;;;5115066;28;20518;-68
2021/12/26 07:32:07;;;;;;;16.03;12.77;;;4.60;98.40;;;;;;5114928;28;20467;-68
2021/12/26 07:34:34;;;;;;;16.30;13.70;;;4.60;98.40;;;;;;5114940;28;20447;-68
2021/12/26 07:37:01;;;;;;;15.57;12.73;;;4.70;98.50;;;;;;5114527;28;20447;-68
2021/12/26 07:39:28;;;;;;;16.13;13.10;;;4.70;98.50;;;;;;5114489;28;20466;-68
2021/12/26 07:41:54;;;;;;;15.03;12.27;;;4.70;98.50;;;;;;5114741;28;20459;-68
2021/12/26 07:44:21;;;;;;;16.67;12.50;;;4.60;98.60;;;;;;5114765;28;20442;-69
2021/12/26 07:46:50;;;;;;;14.67;11.93;;;4.60;98.80;;;;;;5114748;28;20443;-68
2021/12/26 07:49:17;;;;;;;14.10;11.33;;;4.70;98.80;;;;;;5114726;28;20478;-68
2021/12/26 07:51:45;;;;;;;13.53;11.43;;;4.60;98.60;;;;;;5114643;28;20462;-68
2021/12/26 07:54:14;;;;;;;12.80;11.30;;;4.60;98.80;;;;;;5114686;28;20808;-68
2021/12/26 07:56:41;;;;;;;14.80;11.23;;;4.70;98.90;;;;;;5114547;28;20446;-68
2021/12/26 07:59:08;;;;;;;13.97;11.40;;;4.60;99.10;;;;;;5114454;28;20434;-68
2021/12/26 08:01:35;;;;;;;14.33;11.43;;;4.60;99.20;;;;;;5114470;28;20844;-68
2021/12/26 08:04:05;;;;;;;16.53;12.80;;;4.70;99.10;;;;;;5114069;28;20861;-68
2021/12/26 08:06:33;;;;;;;14.17;11.53;;;4.60;99.20;;;;;;5114436;28;20557;-68
2021/12/26 08:08:59;;;;;;;16.90;12.63;;;4.40;99.50;;;;;;5114330;28;20492;-68
2021/12/26 08:11:26;;;;;;;16.90;13.40;;;4.40;99.90;;;;;;5114227;28;20459;-68
2021/12/26 08:13:53;;;;;;;18.23;13.03;;;4.50;99.60;;;;;;5114293;28;20462;-68
2021/12/26 08:16:20;;;;;;;18.63;13.10;;;4.50;99.50;;;;;;5114266;28;20507;-68
2021/12/26 08:18:47;;;;;;;14.33;11.53;;;4.60;99.40;;;;;;5114239;28;20446;-68
2021/12/26 08:21:15;;;;;;;14.07;11.10;;;4.60;99.30;;;;;;5114012;28;20565;-68
2021/12/26 08:23:42;;;;;;;15.10;11.77;;;4.60;99.40;;;;;;5113935;28;20775;-68
2021/12/26 08:26:08;;;;;;;14.50;11.57;;;4.70;99.10;;;;;;5114513;28;20451;-68
2021/12/26 08:28:35;;;;;;;17.30;12.40;;;4.70;99.00;;;;;;5115738;28;20446;-68
2021/12/26 08:31:02;;;;;;;16.00;12.00;;;4.70;98.90;;;;;;5115616;28;20467;-68
2021/12/26 08:33:29;;;;;;;14.73;11.73;;;4.80;98.80;;;;;;5115291;27;20447;-68
2021/12/26 08:35:56;;;;;;;15.37;12.70;;;4.80;98.80;;;;;;5114687;28;20423;-68
2021/12/26 08:38:25;;;;;;;15.93;12.50;;;4.90;98.50;;;;;;5114267;28;20473;-68
2021/12/26 08:40:54;;;;;;;15.87;12.57;;;4.90;98.60;;;;;;5113851;28;20490;-68
2021/12/26 08:43:21;;;;;;;18.17;13.33;;;4.90;98.60;;;;;;5114007;28;20495;-68
2021/12/26 08:45:49;;;;;;;17.80;13.07;;;4.90;98.60;;;;;;5114048;28;20451;-68
2021/12/26 08:48:16;;;;;;;15.67;12.40;;;4.90;98.60;;;;;;5113964;28;20438;-68
2021/12/26 08:50:43;;;;;;;15.10;12.10;;;4.90;98.90;;;;;;5116911;28;20462;-68
2021/12/26 08:53:11;;;;;;;15.30;12.57;;;5.00;98.20;;;;;;5118095;28;20442;-68
2021/12/26 08:55:39;;;;;;;17.17;12.97;;;5.00;97.90;;;;;;5117739;28;20974;-68
2021/12/26 08:58:06;;;;;;;16.20;12.70;;;4.90;98.20;;;;;;5117935;28;20466;-68
2021/12/26 09:00:34;;;;;;;13.87;11.87;;;4.90;98.20;;;;;;5117610;28;20543;-68
2021/12/26 09:03:01;;;;;;;15.07;12.70;;;4.90;98.20;;;;;;5117773;28;20447;-68
2021/12/26 09:05:29;;;;;;;13.50;10.70;;;4.90;98.30;;;;;;5117600;28;20462;-68
2021/12/26 09:08:02;;;;;;;15.50;12.17;;;4.90;98.30;;;;;;5117628;28;20981;-69
2021/12/26 09:10:48;;;;;;;13.40;11.40;;;5.00;98.20;;;;;;5117759;28;20813;-68
2021/12/26 09:13:28;;;;;;;13.60;11.40;;;5.00;98.10;;;;;;5117324;27;20521;-68
2021/12/26 09:15:55;;;;;;;15.83;11.30;;;5.00;98.10;;;;;;5117773;28;20517;-68
2021/12/26 09:18:22;;;;;;;16.90;12.77;;;5.00;98.00;;;;;;5117619;28;20446;-68
2021/12/26 09:20:49;;;;;;;17.70;11.40;;;5.10;98.00;;;;;;5117406;28;20478;-68
2021/12/26 09:23:16;;;;;;;16.20;12.70;;;5.10;97.80;;;;;;5117396;28;20491;-68
2021/12/26 09:25:42;;;;;;;14.40;11.60;;;5.10;97.90;;;;;;5117312;28;20453;-68
2021/12/26 09:28:10;;;;;;;14.50;11.20;;;5.20;97.80;;;;;;5117273;28;20446;-68
2021/12/26 09:30:39;;;;;;;13.83;11.30;;;5.20;97.70;;;;;;5117113;28;20867;-69
2021/12/26 09:33:06;;;;;;;16.23;11.90;;;5.20;97.60;;;;;;5116909;28;20947;-68
2021/12/26 09:35:32;;;;;;;15.17;11.63;;;5.30;97.80;;;;;;5117105;28;20975;-68
2021/12/26 09:38:01;;;;;;;16.37;12.60;;;5.30;98.00;;;;;;5117413;28;20959;-68
2021/12/26 09:40:28;;;;;;;13.77;11.10;;;5.50;98.10;;;;;;5117477;28;20482;-68
2021/12/26 09:42:55;;;;;;;16.70;12.70;;;5.50;98.00;;;;;;5117051;28;20959;-68
2021/12/26 09:45:22;;;;;;;16.00;12.90;;;5.60;97.80;;;;;;5117278;28;20524;-68
2021/12/26 09:47:50;;;;;;;15.00;12.00;;;5.70;97.70;;;;;;5117060;28;20932;-68
2021/12/26 09:50:20;;;;;;;17.27;12.57;;;5.70;97.50;;;;;;5117681;28;20462;-68
2021/12/26 09:52:49;;;;;;;14.75;13.15;;;5.80;96.90;;;;;;5116451;28;20434;-68
2021/12/26 09:55:16;;;;;;;14.30;12.33;;;5.90;96.90;;;;;;5116995;28;20200;-68
2021/12/26 09:57:43;;;;;;;15.10;11.37;;;5.90;96.90;;;;;;5116890;28;20450;-68
2021/12/26 10:00:25;;;;;;;15.00;11.90;;;5.90;97.10;;;;;;5116196;28;20477;-69
2021/12/26 10:03:16;;;;;;;14.40;11.37;;;5.80;97.20;;;;;;5117960;28;20442;-68
2021/12/26 10:06:10;;;;;;;15.60;12.50;;;5.80;97.00;;;;;;5116594;28;20452;-68
2021/12/26 10:08:55;;;;;;;13.97;11.50;;;5.80;97.00;;;;;;5116748;28;20803;-68
2021/12/26 10:11:25;;;;;;;15.10;11.00;;;5.80;97.00;;;;;;5116622;28;20477;-68
2021/12/26 10:13:55;;;;;;;12.83;10.47;;;5.80;97.20;;;;;;5116757;28;20445;-68
2021/12/26 10:16:24;;;;;;;16.00;11.50;;;5.80;97.40;;;;;;5116983;28;20451;-68
2021/12/26 10:18:53;;;;;;;12.53;11.20;;;5.80;97.30;;;;;;5116619;28;20439;-68
2021/12/26 10:21:33;;;;;;;14.67;11.80;;;5.80;97.10;;;;;;5116579;28;20565;-68
2021/12/26 10:24:03;;;;;;;13.70;11.60;;;5.80;97.20;;;;;;5116452;28;20434;-68
2021/12/26 10:26:33;;;;;;;15.43;12.30;;;5.80;97.50;;;;;;5116086;28;20920;-68
2021/12/26 10:29:19;;;;;;;18.87;12.30;;;5.80;97.80;;;;;;5116279;28;20455;-68
2021/12/26 10:31:53;;;;;;;15.10;11.60;;;5.90;97.90;;;;;;5116168;28;20466;-69
2021/12/26 10:34:25;;;;;;;16.30;12.53;;;6.00;97.80;;;;;;5116238;28;20427;-68
2021/12/26 10:36:54;;;;;;;14.67;12.40;;;6.00;97.50;;;;;;5116841;28;20438;-68
2021/12/26 10:39:22;;;;;;;15.47;12.43;;;6.10;97.20;;;;;;5116305;28;20447;-68
2021/12/26 10:41:51;;;;;;;14.33;12.13;;;6.20;97.30;;;;;;5115998;28;20490;-68
2021/12/26 10:44:36;;;;;;;15.40;13.37;;;6.30;97.40;;;;;;5116044;28;20427;-68
2021/12/26 10:47:07;;;;;;;15.53;12.07;;;6.40;97.20;;;;;;5116042;28;20465;-68
2021/12/26 10:49:41;;;;;;;18.07;13.03;;;6.50;96.70;;;;;;5116127;28;20435;-68
2021/12/26 10:52:15;;;;;;;16.13;12.47;;;6.60;96.50;;;;;;5115934;28;20513;-68
2021/12/26 10:54:44;;;;;;;12.10;10.70;;;6.50;96.40;;;;;;5116401;28;20496;-68
2021/12/26 10:57:19;;;;;;;14.77;11.80;;;6.50;96.50;;;;;;5115426;28;20998;-68
2021/12/26 10:59:49;;;;;;;13.10;11.70;;;6.50;96.70;;;;;;5115718;28;20513;-68
2021/12/26 11:02:24;;;;;;;13.63;11.90;;;6.50;96.80;;;;;;5115143;28;20493;-68
2021/12/26 11:05:02;;;;;;;14.20;12.13;;;6.60;96.80;;;;;;5115146;28;20458;-68
2021/12/26 11:07:29;;;;;;;13.63;12.00;;;6.60;96.70;;;;;;5115656;28;20427;-68
2021/12/26 11:10:05;;;;;;;15.80;12.07;;;6.70;96.20;;;;;;5115189;28;20446;-68
2021/12/26 11:12:41;;;;;;;13.50;11.73;;;6.60;96.20;;;;;;5114727;28;20434;-68
2021/12/26 11:15:09;;;;;;;14.20;12.33;;;6.60;96.70;;;;;;5115065;28;20848;-68
2021/12/26 11:17:39;;;;;;;12.97;11.43;;;6.60;97.10;;;;;;5115289;28;20439;-67
2021/12/26 11:20:21;;;;;;;17.13;11.63;;;6.60;96.70;;;;;;5115121;28;20466;-69
2021/12/26 11:22:59;;;;;;;14.27;11.50;;;6.70;96.90;;;;;;5115340;28;20523;-68
2021/12/26 11:25:38;;;;;;;12.60;10.10;;;6.60;96.80;;;;;;5115276;28;20431;-68
2021/12/26 11:28:52;;;;;;;13.07;11.63;;;6.70;97.10;;;;;;5114435;28;20443;-68
2021/12/26 11:31:21;;;;;;;16.60;12.37;;;6.80;97.10;;;;;;5115007;28;20467;-68
2021/12/26 11:33:54;;;;;;;13.30;11.30;;;6.80;97.00;;;;;;5115018;28;20450;-68
2021/12/26 11:36:23;;;;;;;14.23;12.20;;;6.80;96.10;;;;;;5115910;28;20435;-68
2021/12/26 11:38:53;;;;;;;13.50;12.07;;;6.80;96.50;;;;;;5115172;28;20442;-67
2021/12/26 11:41:28;;;;;;;14.20;12.13;;;6.90;96.50;;;;;;5114740;28;20475;-67
2021/12/26 11:44:11;;;;;;;16.20;11.87;;;6.90;96.30;;;;;;5115740;28;20426;-67
2021/12/26 11:47:02;;;;;;;13.40;11.50;;;6.90;96.40;;;;;;5115276;28;20885;-68
2021/12/26 11:50:04;;;;;;;17.30;12.63;;;6.90;96.40;;;;;;5114825;28;20449;-68
2021/12/26 11:52:47;;;;;;;16.37;12.53;;;7.00;96.40;;;;;;5111184;28;20447;-70
2021/12/26 11:55:24;;;;;;;13.50;11.63;;;6.90;96.40;;;;;;5114751;28;20437;-72
2021/12/26 11:58:10;;;;;;;13.27;11.53;;;6.90;96.30;;;;;;5114596;28;20425;-71
2021/12/26 12:00:41;;;;;;;13.87;11.77;;;6.90;96.40;;;;;;5114396;28;20513;-70
2021/12/26 12:03:18;;;;;;;14.63;12.30;;;6.90;96.20;;;;;;5114546;28;20435;-71
2021/12/26 12:05:46;;;;;;;13.57;11.50;;;6.90;96.30;;;;;;5113993;28;20797;-71
2021/12/26 12:08:15;;;;;;;13.77;12.17;;;6.90;96.50;;;;;;5114357;28;20439;-71
2021/12/26 12:10:48;;;;;;;14.30;11.23;;;6.90;96.60;;;;;;5114244;28;20461;-70
2021/12/26 12:13:53;;;;;;;13.73;11.63;;;6.90;96.70;;;;;;5114027;28;20919;-71
2021/12/26 12:16:33;;;;;;;13.10;11.47;;;6.90;96.90;;;;;;5114289;28;20820;-70
2021/12/26 12:19:01;;;;;;;13.23;11.10;;;6.90;96.90;;;;;;5114177;28;20431;-72
2021/12/26 12:21:35;;;;;;;14.93;12.30;;;7.00;96.80;;;;;;5112688;28;20947;-72
2021/12/26 12:24:07;;;;;;;13.40;11.70;;;7.00;96.20;;;;;;5114912;28;20446;-72
2021/12/26 12:26:58;;;;;;;13.93;10.73;;;6.90;95.60;;;;;;5113841;28;20977;-69
2021/12/26 12:29:51;;;;;;;13.00;11.07;;;6.80;95.50;;;;;;5113774;28;20892;-69
2021/12/26 12:32:20;;;;;;;11.97;10.50;;;6.70;95.80;;;;;;5114040;28;20531;-68
2021/12/26 12:34:51;;;;;;;16.43;10.87;;;6.80;96.00;;;;;;5113997;28;20443;-69
2021/12/26 12:37:38;;;;;;;11.90;10.50;;;6.80;96.20;;;;;;5114045;28;20472;-68
2021/12/26 12:40:14;;;;;;;14.70;11.17;;;6.80;96.40;;;;;;5114957;28;20419;-68
2021/12/26 12:42:45;;;;;;;13.20;10.70;;;6.80;96.90;;;;;;5113608;28;20515;-67
2021/12/26 12:45:12;;;;;;;14.17;10.50;;;6.70;97.20;;;;;;5113676;28;20990;-67
2021/12/26 12:47:38;;;;;;;15.38;11.40;;;6.60;97.40;;;;;;5114755;28;20439;-66
2021/12/26 12:50:06;;;;;;;13.33;11.00;;;6.60;97.20;;;;;;5114789;28;20201;-67
2021/12/26 12:52:38;;;;;;;12.85;11.10;;;6.60;97.10;;;;;;5113434;28;20427;-68
2021/12/26 12:55:06;;;;;;;13.53;10.90;;;6.60;97.30;;;;;;5113853;28;20205;-67
2021/12/26 12:57:39;;;;;;;12.87;11.40;;;6.70;97.30;;;;;;5113849;28;20888;-68
2021/12/26 13:00:40;;;;;;;12.33;10.63;;;6.70;97.20;;;;;;5113782;28;20426;-69